Surina — V7WD3 — position and weather

sailwx.info

Track history (hours):
 
Tides and Currents Weather Stations Pressure Air Temp Water Temp Dewpoint Dewpoint Depression Visibility Wind Speed Wind Dir Waves Ship Positions

Surina

Last reported at 2017-Dec-29 22:41 UTC. Time now 2018-Feb-24 03:46 UTC.
Position N 09°12' W 079°54'.
Warning: this ship's position is 56 days out of date.

Length 45 m; draft 2.3 m.

Type: Pleasure craft. MMSI: 538080080.

Date/timePositionNaut miles runAvg speedWind from/ knotsBaromVisibWave heightAir tempDewpointWater temp
2017-Dec-29 22:41N 09°12' W 079°54'210.7
2017-Dec-29 22:28N 09°14' W 079°55'3 5.1
2017-Dec-29 21:58N 09°16' W 079°55'0 0.6
2017-Dec-29 21:23N 09°17' W 079°55'0 0.0
2017-Dec-29 20:49N 09°17' W 079°55'0 0.0
2017-Dec-29 20:30N 09°17' W 079°55'2 3.7
2017-Dec-29 20:01N 09°18' W 079°55'2 4.4
2017-Dec-29 19:30N 09°21' W 079°55'2 3.4
2017-Dec-29 19:00N 09°22' W 079°54'0 0.5
2017-Dec-29 18:30N 09°22' W 079°54'0 0.0
2017-Dec-29 18:00N 09°22' W 079°54'0 0.0
2017-Dec-29 17:30N 09°22' W 079°54'2 4.8
2017-Dec-29 17:00N 09°22' W 079°57'0 0.7
2017-Dec-29 16:30N 09°22' W 079°57'0 0.0
2017-Dec-29 16:00N 09°22' W 079°57'0 0.0
2017-Dec-29 15:30N 09°22' W 079°57'1 1.2
2017-Dec-29 15:00N 09°22' W 079°57'1 1.1
2017-Dec-29 14:28N 09°22' W 079°57'0 0.0
2017-Dec-29 13:58N 09°22' W 079°57'0 0.0
2017-Dec-29 13:28N 09°22' W 079°57'0 0.0
2017-Dec-29 12:58N 09°22' W 079°57'0 0.0
2017-Dec-29 12:28N 09°22' W 079°57'0 0.0
2017-Dec-29 11:58N 09°22' W 079°57'0 0.0
2017-Dec-29 11:28N 09°22' W 079°57'0 0.0
2017-Dec-29 10:58N 09°22' W 079°57'0 0.0
2017-Dec-29 10:25N 09°22' W 079°57'0 0.0
2017-Dec-29 09:58N 09°22' W 079°57'0 0.0
2017-Dec-29 09:28N 09°22' W 079°57'0 0.0
2017-Dec-29 08:58N 09°22' W 079°57'0 0.0
2017-Dec-29 08:28N 09°22' W 079°57'0 0.0
2017-Dec-29 07:58N 09°22' W 079°57'0 0.0
2017-Dec-29 07:28N 09°22' W 079°57'0 0.0
2017-Dec-29 06:58N 09°22' W 079°57'0 0.0
2017-Dec-29 06:28N 09°22' W 079°57'0 0.0
2017-Dec-29 05:58N 09°22' W 079°57'0 0.0
2017-Dec-29 05:28N 09°22' W 079°57'0 0.0
2017-Dec-29 04:58N 09°22' W 079°57'0 0.0
2017-Dec-29 04:28N 09°22' W 079°57'0 0.0
2017-Dec-29 03:58N 09°22' W 079°57'0 0.0
2017-Dec-29 03:28N 09°22' W 079°57'0 0.0
2017-Dec-29 02:58N 09°22' W 079°57'0 0.0
2017-Dec-29 02:28N 09°22' W 079°57'0 0.0
2017-Dec-29 01:58N 09°22' W 079°57'0 0.0
2017-Dec-29 01:28N 09°22' W 079°57'0 0.0
2017-Dec-29 00:58N 09°22' W 079°57'0 0.0
2017-Dec-29 00:28N 09°22' W 079°57'0 0.0
2017-Dec-28 23:58N 09°22' W 079°57'0 0.0
2017-Dec-28 23:28N 09°22' W 079°57'0 0.0
2017-Dec-28 22:58N 09°22' W 079°57'0 0.0
2017-Dec-28 22:28N 09°22' W 079°57'0 0.0
2017-Dec-28 21:58N 09°22' W 079°57'0 0.0
2017-Dec-28 21:28N 09°22' W 079°57'0 0.0
2017-Dec-28 20:58N 09°22' W 079°57'0 0.0
2017-Dec-28 20:28N 09°22' W 079°57'0 0.0
2017-Dec-28 19:58N 09°22' W 079°57'0 0.0
2017-Dec-28 19:28N 09°22' W 079°57'0 0.0
2017-Dec-28 18:58N 09°22' W 079°57'0 0.0
2017-Dec-28 18:28N 09°22' W 079°57'0 0.0
2017-Dec-28 17:58N 09°22' W 079°57'0 0.0
2017-Dec-28 17:28N 09°22' W 079°57'0 0.0
2017-Dec-28 16:58N 09°22' W 079°57'0 0.0
2017-Dec-28 16:28N 09°22' W 079°57'0 0.0
2017-Dec-28 15:58N 09°22' W 079°57'0 0.0
2017-Dec-28 15:28N 09°22' W 079°57'0 0.0
2017-Dec-28 14:58N 09°22' W 079°57'0 0.0
2017-Dec-28 14:28N 09°22' W 079°57'0 0.0
2017-Dec-28 13:58N 09°22' W 079°57'0 0.0
2017-Dec-28 13:28N 09°22' W 079°57'0 0.0
2017-Dec-28 12:58N 09°22' W 079°57'0 0.0
2017-Dec-28 12:28N 09°22' W 079°57'2 4.7
2017-Dec-28 12:01N 09°23' W 079°55'611.8
2017-Dec-28 11:29N 09°28' W 079°51'  
2017-Dec-21 20:29N 10°25' W 075°33'0 0.0
2017-Dec-21 19:47N 10°25' W 075°33'0 0.0
2017-Dec-21 19:29N 10°25' W 075°33'0 0.0
2017-Dec-21 18:59N 10°25' W 075°33'0 0.0
2017-Dec-21 18:23N 10°25' W 075°33'0 0.0
2017-Dec-21 17:59N 10°25' W 075°33'0 0.0
2017-Dec-21 17:11N 10°25' W 075°33'0 0.0
2017-Dec-21 16:05N 10°25' W 075°33'0 0.1
2017-Dec-21 15:59N 10°25' W 075°33'0 0.0
2017-Dec-21 15:28N 10°25' W 075°33'0 0.0
2017-Dec-21 14:58N 10°25' W 075°33'0 0.0
2017-Dec-21 14:29N 10°25' W 075°33'0 0.0
2017-Dec-20 13:52N 10°25' W 075°33'0 0.0
2017-Dec-20 11:29N 10°25' W 075°33'0 0.0
2017-Dec-20 02:31N 10°25' W 075°33'0 0.1
2017-Dec-20 02:28N 10°25' W 075°33'  
Track history (hours):
 
Tides and Currents Weather Stations Pressure Air Temp Water Temp Dewpoint Dewpoint Depression Visibility Wind Speed Wind Dir Waves Ship Positions

Surina

Last reported at 2017-Dec-29 22:41 UTC. Time now 2018-Feb-24 03:46 UTC.
Position N 09°12' W 079°54'.
Warning: this ship's position is 56 days out of date.

Length 45 m; draft 2.3 m.

Type: Pleasure craft. MMSI: 538080080.

Date/timePositionNaut miles runAvg speedWind from/ knotsBaromVisibWave heightAir tempDewpointWater temp
2017-Dec-29 22:41N 09°12' W 079°54'210.7
2017-Dec-29 22:28N 09°14' W 079°55'3 5.1
2017-Dec-29 21:58N 09°16' W 079°55'0 0.6
2017-Dec-29 21:23N 09°17' W 079°55'0 0.0
2017-Dec-29 20:49N 09°17' W 079°55'0 0.0
2017-Dec-29 20:30N 09°17' W 079°55'2 3.7
2017-Dec-29 20:01N 09°18' W 079°55'2 4.4
2017-Dec-29 19:30N 09°21' W 079°55'2 3.4
2017-Dec-29 19:00N 09°22' W 079°54'0 0.5
2017-Dec-29 18:30N 09°22' W 079°54'0 0.0
2017-Dec-29 18:00N 09°22' W 079°54'0 0.0
2017-Dec-29 17:30N 09°22' W 079°54'2 4.8
2017-Dec-29 17:00N 09°22' W 079°57'0 0.7
2017-Dec-29 16:30N 09°22' W 079°57'0 0.0
2017-Dec-29 16:00N 09°22' W 079°57'0 0.0
2017-Dec-29 15:30N 09°22' W 079°57'1 1.2
2017-Dec-29 15:00N 09°22' W 079°57'1 1.1
2017-Dec-29 14:28N 09°22' W 079°57'0 0.0
2017-Dec-29 13:58N 09°22' W 079°57'0 0.0
2017-Dec-29 13:28N 09°22' W 079°57'0 0.0
2017-Dec-29 12:58N 09°22' W 079°57'0 0.0
2017-Dec-29 12:28N 09°22' W 079°57'0 0.0
2017-Dec-29 11:58N 09°22' W 079°57'0 0.0
2017-Dec-29 11:28N 09°22' W 079°57'0 0.0
2017-Dec-29 10:58N 09°22' W 079°57'0 0.0
2017-Dec-29 10:25N 09°22' W 079°57'0 0.0
2017-Dec-29 09:58N 09°22' W 079°57'0 0.0
2017-Dec-29 09:28N 09°22' W 079°57'0 0.0
2017-Dec-29 08:58N 09°22' W 079°57'0 0.0
2017-Dec-29 08:28N 09°22' W 079°57'0 0.0
2017-Dec-29 07:58N 09°22' W 079°57'0 0.0
2017-Dec-29 07:28N 09°22' W 079°57'0 0.0
2017-Dec-29 06:58N 09°22' W 079°57'0 0.0
2017-Dec-29 06:28N 09°22' W 079°57'0 0.0
2017-Dec-29 05:58N 09°22' W 079°57'0 0.0
2017-Dec-29 05:28N 09°22' W 079°57'0 0.0
2017-Dec-29 04:58N 09°22' W 079°57'0 0.0
2017-Dec-29 04:28N 09°22' W 079°57'0 0.0
2017-Dec-29 03:58N 09°22' W 079°57'0 0.0
2017-Dec-29 03:28N 09°22' W 079°57'0 0.0
2017-Dec-29 02:58N 09°22' W 079°57'0 0.0
2017-Dec-29 02:28N 09°22' W 079°57'0 0.0
2017-Dec-29 01:58N 09°22' W 079°57'0 0.0
2017-Dec-29 01:28N 09°22' W 079°57'0 0.0
2017-Dec-29 00:58N 09°22' W 079°57'0 0.0
2017-Dec-29 00:28N 09°22' W 079°57'0 0.0
2017-Dec-28 23:58N 09°22' W 079°57'0 0.0
2017-Dec-28 23:28N 09°22' W 079°57'0 0.0
2017-Dec-28 22:58N 09°22' W 079°57'0 0.0
2017-Dec-28 22:28N 09°22' W 079°57'0 0.0
2017-Dec-28 21:58N 09°22' W 079°57'0 0.0
2017-Dec-28 21:28N 09°22' W 079°57'0 0.0
2017-Dec-28 20:58N 09°22' W 079°57'0 0.0
2017-Dec-28 20:28N 09°22' W 079°57'0 0.0
2017-Dec-28 19:58N 09°22' W 079°57'0 0.0
2017-Dec-28 19:28N 09°22' W 079°57'0 0.0
2017-Dec-28 18:58N 09°22' W 079°57'0 0.0
2017-Dec-28 18:28N 09°22' W 079°57'0 0.0
2017-Dec-28 17:58N 09°22' W 079°57'0 0.0
2017-Dec-28 17:28N 09°22' W 079°57'0 0.0
2017-Dec-28 16:58N 09°22' W 079°57'0 0.0
2017-Dec-28 16:28N 09°22' W 079°57'0 0.0
2017-Dec-28 15:58N 09°22' W 079°57'0 0.0
2017-Dec-28 15:28N 09°22' W 079°57'0 0.0
2017-Dec-28 14:58N 09°22' W 079°57'0 0.0
2017-Dec-28 14:28N 09°22' W 079°57'0 0.0
2017-Dec-28 13:58N 09°22' W 079°57'0 0.0
2017-Dec-28 13:28N 09°22' W 079°57'0 0.0
2017-Dec-28 12:58N 09°22' W 079°57'0 0.0
2017-Dec-28 12:28N 09°22' W 079°57'2 4.7
2017-Dec-28 12:01N 09°23' W 079°55'611.8
2017-Dec-28 11:29N 09°28' W 079°51'  
2017-Dec-21 20:29N 10°25' W 075°33'0 0.0
2017-Dec-21 19:47N 10°25' W 075°33'0 0.0
2017-Dec-21 19:29N 10°25' W 075°33'0 0.0
2017-Dec-21 18:59N 10°25' W 075°33'0 0.0
2017-Dec-21 18:23N 10°25' W 075°33'0 0.0
2017-Dec-21 17:59N 10°25' W 075°33'0 0.0
2017-Dec-21 17:11N 10°25' W 075°33'0 0.0
2017-Dec-21 16:05N 10°25' W 075°33'0 0.1
2017-Dec-21 15:59N 10°25' W 075°33'0 0.0
2017-Dec-21 15:28N 10°25' W 075°33'0 0.0
2017-Dec-21 14:58N 10°25' W 075°33'0 0.0
2017-Dec-21 14:29N 10°25' W 075°33'0 0.0
2017-Dec-20 13:52N 10°25' W 075°33'0 0.0
2017-Dec-20 11:29N 10°25' W 075°33'0 0.0
2017-Dec-20 02:31N 10°25' W 075°33'0 0.1
2017-Dec-20 02:28N 10°25' W 075°33'  

Dump ship's entire track history